createdAt,value
2022-07-27T00:01:02.361Z,1.30
2022-07-27T00:03:31.778Z,1.23
2022-07-27T00:05:59.550Z,1.00
2022-07-27T00:08:27.387Z,1.33
2022-07-27T00:10:55.386Z,1.10
2022-07-27T00:13:23.242Z,1.40
2022-07-27T00:15:51.485Z,1.13
2022-07-27T00:18:19.354Z,1.47
2022-07-27T00:20:48.875Z,1.30
2022-07-27T00:23:16.782Z,1.20
2022-07-27T00:25:44.600Z,1.60
2022-07-27T00:28:12.393Z,1.20
2022-07-27T00:30:40.274Z,1.60
2022-07-27T00:33:08.405Z,1.17
2022-07-27T00:35:36.270Z,1.13
2022-07-27T00:38:06.897Z,1.17
2022-07-27T00:40:34.783Z,1.20
2022-07-27T00:43:02.648Z,1.10
2022-07-27T00:45:30.705Z,1.40
2022-07-27T00:47:58.482Z,1.30
2022-07-27T00:50:26.848Z,1.40
2022-07-27T00:52:55.543Z,1.20
2022-07-27T00:55:25.993Z,1.30
2022-07-27T00:57:58.919Z,1.30
2022-07-27T01:00:27.634Z,1.20
2022-07-27T01:02:57.323Z,1.00
2022-07-27T01:05:35.840Z,1.50
2022-07-27T01:08:06.652Z,1.30
2022-07-27T01:10:36.542Z,1.40
2022-07-27T01:13:04.817Z,1.50
2022-07-27T01:15:36.704Z,1.47
2022-07-27T01:18:11.301Z,1.53
2022-07-27T01:20:40.884Z,2.13
2022-07-27T01:23:10.842Z,1.30
2022-07-27T01:25:41.150Z,2.17
2022-07-27T01:28:08.986Z,1.57
2022-07-27T01:30:36.799Z,1.40
2022-07-27T01:33:05.913Z,1.53
2022-07-27T01:35:34.300Z,1.87
2022-07-27T01:38:02.284Z,1.23
2022-07-27T01:40:31.813Z,1.60
2022-07-27T01:42:59.657Z,1.50
2022-07-27T01:45:27.521Z,1.40
2022-07-27T01:47:55.387Z,1.70
2022-07-27T01:50:23.258Z,1.50
2022-07-27T01:52:51.160Z,2.03
2022-07-27T01:55:18.997Z,1.87
2022-07-27T01:57:48.168Z,1.43
2022-07-27T02:00:16.334Z,1.50
2022-07-27T02:02:44.320Z,1.93
2022-07-27T02:05:12.437Z,1.90
2022-07-27T02:07:40.888Z,1.60
2022-07-27T02:10:09.943Z,1.80
2022-07-27T02:12:37.405Z,1.90
2022-07-27T02:15:13.429Z,1.50
2022-07-27T02:17:44.853Z,2.03
2022-07-27T02:20:14.233Z,1.73
2022-07-27T02:22:42.409Z,1.80
2022-07-27T02:25:11.775Z,1.70
2022-07-27T02:27:40.734Z,1.80
2022-07-27T02:30:12.992Z,1.80
2022-07-27T02:32:44.405Z,1.87
2022-07-27T02:35:19.209Z,1.80
2022-07-27T02:37:48.399Z,1.70
2022-07-27T02:40:17.996Z,1.80
2022-07-27T02:42:46.634Z,1.90
2022-07-27T02:45:15.926Z,1.87
2022-07-27T02:47:44.651Z,2.10
2022-07-27T02:50:12.826Z,1.80
2022-07-27T02:52:41.104Z,1.73
2022-07-27T02:55:10.367Z,1.97
2022-07-27T02:57:41.191Z,1.87
2022-07-27T03:00:12.420Z,1.90
2022-07-27T03:02:41.886Z,1.87
2022-07-27T03:05:11.496Z,1.73
2022-07-27T03:07:39.642Z,2.17
2022-07-27T03:10:08.838Z,1.87
2022-07-27T03:12:36.655Z,2.10
2022-07-27T03:15:05.057Z,1.90
2022-07-27T03:17:33.345Z,2.33
2022-07-27T03:20:02.573Z,1.83
2022-07-27T03:22:32.547Z,2.13
2022-07-27T03:25:01.281Z,2.10
2022-07-27T03:27:29.811Z,2.17
2022-07-27T03:29:58.075Z,1.83
2022-07-27T03:32:26.026Z,2.00
2022-07-27T03:34:53.949Z,2.10
2022-07-27T03:37:23.172Z,1.70
2022-07-27T03:39:51.112Z,1.90
2022-07-27T03:42:19.060Z,1.80
2022-07-27T03:44:46.965Z,2.17
2022-07-27T03:47:14.732Z,2.13
2022-07-27T03:49:42.524Z,2.00
2022-07-27T03:52:15.678Z,2.20
2022-07-27T03:54:47.576Z,2.13
2022-07-27T03:57:16.005Z,2.10
2022-07-27T03:59:44.254Z,1.90
2022-07-27T04:02:12.151Z,1.83
2022-07-27T04:04:40.048Z,2.13
2022-07-27T04:07:07.970Z,2.10
2022-07-27T04:09:37.576Z,1.90
2022-07-27T04:12:09.157Z,2.40
2022-07-27T04:14:37.048Z,2.10
2022-07-27T04:17:05.121Z,1.87
2022-07-27T04:19:33.141Z,1.90
2022-07-27T04:22:00.916Z,1.83
2022-07-27T04:24:28.758Z,2.10
2022-07-27T04:26:56.589Z,2.57
2022-07-27T04:29:25.808Z,6.20
2022-07-27T04:31:53.612Z,2.43
2022-07-27T04:34:21.641Z,5.77
2022-07-27T04:36:50.010Z,3.63
2022-07-27T04:39:17.913Z,2.70
2022-07-27T04:41:45.811Z,2.67
2022-07-27T04:44:13.650Z,2.07
2022-07-27T04:46:42.813Z,2.07
2022-07-27T04:49:10.977Z,2.13
2022-07-27T04:51:39.073Z,2.23
2022-07-27T04:54:06.938Z,2.00
2022-07-27T04:56:34.746Z,2.17
2022-07-27T04:59:02.655Z,2.07
2022-07-27T05:01:34.963Z,2.20
2022-07-27T05:04:05.226Z,2.43
2022-07-27T05:06:33.288Z,2.53
2022-07-27T05:09:01.182Z,3.13
2022-07-27T05:11:29.020Z,2.57
2022-07-27T05:13:57.073Z,2.50
2022-07-27T05:16:28.518Z,2.37
2022-07-27T05:18:57.445Z,2.60
2022-07-27T05:21:27.367Z,2.00
2022-07-27T05:23:55.631Z,2.10
2022-07-27T05:26:23.463Z,2.00
2022-07-27T05:28:51.410Z,2.33
2022-07-27T05:31:19.621Z,2.30
2022-07-27T05:33:49.814Z,1.90
2022-07-27T05:36:19.134Z,2.83
2022-07-27T05:38:48.357Z,2.13
2022-07-27T05:41:16.394Z,2.67
2022-07-27T05:43:44.579Z,2.40
2022-07-27T05:46:12.611Z,2.50
2022-07-27T05:48:40.592Z,2.20
2022-07-27T05:51:09.363Z,2.53
2022-07-27T05:53:37.204Z,2.10
2022-07-27T05:56:07.909Z,2.57
2022-07-27T05:58:35.821Z,8.97
2022-07-27T06:01:03.892Z,2.77
2022-07-27T06:03:32.035Z,1.90
2022-07-27T06:06:14.226Z,2.73
2022-07-27T06:08:42.066Z,2.60
2022-07-27T06:11:11.281Z,3.33
2022-07-27T06:13:42.424Z,3.03
2022-07-27T06:16:11.158Z,2.50
2022-07-27T06:18:39.098Z,2.63
2022-07-27T06:21:06.985Z,2.47
2022-07-27T06:23:35.003Z,2.80
2022-07-27T06:26:02.830Z,2.80
2022-07-27T06:28:32.176Z,2.77
2022-07-27T06:31:00.321Z,3.00
2022-07-27T06:33:29.460Z,2.97
2022-07-27T06:35:58.607Z,2.97
2022-07-27T06:38:27.113Z,3.23
2022-07-27T06:40:55.573Z,2.70
2022-07-27T06:43:24.912Z,3.47
2022-07-27T06:45:54.574Z,2.90
2022-07-27T06:48:23.045Z,3.30
2022-07-27T06:50:52.208Z,3.43
2022-07-27T06:53:21.313Z,3.00
2022-07-27T06:55:49.459Z,3.43
2022-07-27T06:58:17.845Z,3.80
2022-07-27T07:00:45.885Z,3.57
2022-07-27T07:03:15.050Z,3.37
2022-07-27T07:05:44.768Z,3.30
2022-07-27T07:08:13.549Z,3.53
2022-07-27T07:10:42.035Z,3.50
2022-07-27T07:13:10.459Z,3.90
2022-07-27T07:15:39.986Z,3.30
2022-07-27T07:18:08.828Z,3.47
2022-07-27T07:20:38.785Z,3.37
2022-07-27T07:23:07.261Z,4.13
2022-07-27T07:25:35.846Z,3.63
2022-07-27T07:28:03.641Z,3.40
2022-07-27T07:30:31.986Z,3.60
2022-07-27T07:33:00.117Z,3.70
2022-07-27T07:35:28.113Z,3.70
2022-07-27T07:37:57.266Z,3.57
2022-07-27T07:40:42.835Z,3.60
2022-07-27T07:43:13.083Z,3.40
2022-07-27T07:45:50.689Z,3.57
2022-07-27T07:48:20.880Z,4.40
2022-07-27T07:50:51.923Z,3.80
2022-07-27T07:53:22.756Z,3.33
2022-07-27T07:55:51.255Z,4.13
2022-07-27T07:58:19.453Z,3.80
2022-07-27T08:00:47.573Z,3.70
2022-07-27T08:03:15.994Z,3.87
2022-07-27T08:05:43.952Z,3.80
2022-07-27T08:08:12.100Z,3.60
2022-07-27T08:10:41.259Z,3.87
2022-07-27T08:13:09.632Z,3.60
2022-07-27T08:15:37.463Z,3.67
2022-07-27T08:18:06.271Z,4.15
2022-07-27T08:20:34.450Z,3.47
2022-07-27T08:23:02.568Z,3.87
2022-07-27T08:25:30.594Z,3.97
2022-07-27T08:28:00.290Z,3.83
2022-07-27T08:30:33.076Z,4.07
2022-07-27T08:33:03.834Z,3.67
2022-07-27T08:35:33.459Z,4.15
2022-07-27T08:38:01.922Z,3.80
2022-07-27T08:40:40.306Z,4.00
2022-07-27T08:43:11.424Z,3.97
2022-07-27T08:45:41.398Z,3.80
2022-07-27T08:48:13.710Z,3.88
2022-07-27T08:50:42.749Z,3.85
2022-07-27T08:53:13.443Z,3.53
2022-07-27T08:55:43.265Z,4.40
2022-07-27T08:58:13.668Z,3.17
2022-07-27T09:00:46.217Z,3.55
2022-07-27T09:03:19.515Z,3.40
2022-07-27T09:05:50.054Z,3.67
2022-07-27T09:08:22.077Z,4.03
2022-07-27T09:10:49.941Z,3.88
2022-07-27T09:13:21.695Z,3.70
2022-07-27T09:18:40.533Z,4.05
2022-07-27T09:21:10.294Z,3.45
2022-07-27T09:23:38.782Z,3.83
2022-07-27T09:26:30.512Z,3.67
2022-07-27T09:29:03.547Z,3.58
2022-07-27T09:31:31.626Z,3.67
2022-07-27T09:34:01.856Z,3.70
2022-07-27T09:36:31.051Z,3.40
2022-07-27T09:39:03.333Z,3.33
2022-07-27T09:41:42.410Z,3.58
2022-07-27T09:44:31.161Z,3.40
2022-07-27T09:47:00.492Z,3.58
2022-07-27T09:49:30.469Z,3.58
2022-07-27T09:52:01.761Z,3.50
2022-07-27T09:54:43.451Z,3.28
2022-07-27T09:57:11.822Z,3.50
2022-07-27T09:59:40.991Z,3.38
2022-07-27T10:02:09.406Z,3.15
2022-07-27T10:04:37.401Z,2.88
2022-07-27T10:07:08.357Z,2.67
2022-07-27T10:09:38.723Z,3.00
2022-07-27T10:12:07.213Z,3.17
2022-07-27T10:14:35.170Z,3.35
2022-07-27T10:17:04.972Z,2.65
2022-07-27T10:19:37.914Z,2.60
2022-07-27T10:22:05.791Z,3.25
2022-07-27T10:24:37.113Z,3.78
2022-07-27T10:27:20.625Z,3.40
2022-07-27T10:29:49.368Z,3.25
2022-07-27T10:32:26.463Z,3.15
2022-07-27T10:34:54.746Z,3.03
2022-07-27T10:37:26.779Z,3.08
2022-07-27T10:40:16.907Z,2.80
2022-07-27T10:42:49.016Z,2.83
2022-07-27T10:45:21.459Z,3.85
2022-07-27T10:47:52.307Z,3.00
2022-07-27T10:50:31.729Z,2.95
2022-07-27T10:53:03.184Z,2.92
2022-07-27T10:55:45.006Z,2.88
2022-07-27T10:58:44.567Z,2.80
2022-07-27T11:01:14.748Z,2.78
2022-07-27T11:03:52.609Z,2.70
2022-07-27T11:06:34.009Z,2.63
2022-07-27T11:11:55.743Z,2.50
2022-07-27T11:14:31.270Z,2.50
2022-07-27T11:17:39.802Z,2.70
2022-07-27T11:19:54.745Z,3.00
2022-07-27T11:25:21.474Z,3.15
2022-07-27T11:27:50.460Z,2.60
2022-07-27T11:30:27.156Z,3.45
2022-07-27T11:32:55.840Z,2.90
2022-07-27T11:35:25.113Z,2.88
2022-07-27T11:38:00.318Z,2.90
2022-07-27T11:40:56.110Z,2.80
2022-07-27T11:43:36.965Z,2.30
2022-07-27T11:46:16.968Z,3.05
2022-07-27T11:49:07.153Z,2.72
2022-07-27T11:51:39.932Z,2.97
2022-07-27T11:54:09.931Z,3.10
2022-07-27T11:56:39.732Z,3.00
2022-07-27T11:59:13.304Z,2.65
2022-07-27T12:01:44.083Z,2.80
2022-07-27T12:04:30.226Z,2.97
2022-07-27T12:07:03.024Z,3.13
2022-07-27T12:09:36.815Z,3.75
2022-07-27T12:12:11.735Z,3.65
2022-07-27T12:14:41.428Z,3.90
2022-07-27T12:17:38.454Z,2.92
2022-07-27T12:20:09.059Z,3.50
2022-07-27T12:22:40.583Z,3.35
2022-07-27T12:25:15.921Z,3.47
2022-07-27T12:27:55.280Z,3.30
2022-07-27T12:30:31.139Z,3.17
2022-07-27T12:32:59.226Z,3.50
2022-07-27T12:35:34.298Z,3.42
2022-07-27T12:38:08.466Z,3.47
2022-07-27T12:40:44.877Z,3.13
2022-07-27T12:43:17.312Z,3.45
2022-07-27T12:45:45.772Z,3.10
2022-07-27T12:48:16.516Z,3.42
2022-07-27T12:50:45.875Z,3.47
2022-07-27T12:53:17.439Z,3.40
2022-07-27T12:55:45.773Z,3.35
2022-07-27T12:58:14.891Z,3.58
2022-07-27T13:00:42.930Z,3.15
2022-07-27T13:03:11.023Z,3.65
2022-07-27T13:05:38.852Z,3.42
2022-07-27T13:08:07.782Z,3.55
2022-07-27T13:10:37.601Z,3.25
2022-07-27T13:13:06.150Z,3.38
2022-07-27T13:15:34.373Z,4.03
2022-07-27T13:18:02.214Z,3.15
2022-07-27T13:20:30.349Z,3.42
2022-07-27T13:22:58.152Z,3.42
2022-07-27T13:25:26.036Z,3.47
2022-07-27T13:27:55.297Z,3.72
2022-07-27T13:30:24.591Z,3.58
2022-07-27T13:32:52.482Z,3.10
2022-07-27T13:35:20.423Z,3.75
2022-07-27T13:37:48.426Z,3.25
2022-07-27T13:40:16.317Z,3.30
2022-07-27T13:42:44.218Z,3.38
2022-07-27T13:45:14.076Z,2.95
2022-07-27T13:47:42.671Z,3.20
2022-07-27T13:50:18.383Z,2.80
2022-07-27T13:52:47.325Z,2.90
2022-07-27T13:55:15.951Z,3.15
2022-07-27T13:57:43.893Z,2.97
2022-07-27T14:00:14.614Z,2.95
2022-07-27T14:02:42.884Z,2.95
2022-07-27T14:05:12.885Z,2.83
2022-07-27T14:07:42.098Z,2.50
2022-07-27T14:10:28.842Z,2.50
2022-07-27T14:12:59.327Z,2.60
2022-07-27T14:15:29.309Z,2.95
2022-07-27T14:17:57.300Z,2.60
2022-07-27T14:20:25.241Z,2.72
2022-07-27T14:22:53.069Z,3.28
2022-07-27T14:25:20.937Z,2.85
2022-07-27T14:27:48.727Z,2.70
2022-07-27T14:30:20.711Z,2.35
2022-07-27T14:32:50.405Z,2.63
2022-07-27T14:35:18.522Z,2.97
2022-07-27T14:37:46.729Z,3.15
2022-07-27T14:40:15.664Z,3.60
2022-07-27T14:42:43.558Z,2.97
2022-07-27T14:45:12.191Z,2.85
2022-07-27T14:47:40.032Z,2.97
2022-07-27T14:50:09.826Z,2.88
2022-07-27T14:52:37.731Z,2.53
2022-07-27T14:55:06.331Z,3.38
2022-07-27T14:57:34.225Z,3.20
2022-07-27T15:00:06.897Z,3.00
2022-07-27T15:02:35.130Z,2.85
2022-07-27T15:05:03.056Z,2.80
2022-07-27T15:07:32.342Z,3.10
2022-07-27T15:10:00.212Z,3.10
2022-07-27T15:12:28.504Z,2.67
2022-07-27T15:14:57.137Z,2.63
2022-07-27T15:17:25.351Z,2.55
2022-07-27T15:19:53.193Z,2.53
2022-07-27T15:22:21.155Z,2.97
2022-07-27T15:24:53.995Z,2.55
2022-07-27T15:27:22.714Z,2.72
2022-07-27T15:29:50.606Z,3.10
2022-07-27T15:32:18.453Z,3.05
2022-07-27T15:34:47.181Z,2.65
2022-07-27T15:37:14.993Z,2.72
2022-07-27T15:39:42.808Z,3.15
2022-07-27T15:42:12.060Z,2.60
2022-07-27T15:44:41.339Z,2.55
2022-07-27T15:47:09.358Z,2.77
2022-07-27T15:49:37.355Z,2.88
2022-07-27T15:52:05.680Z,2.33
2022-07-27T15:54:38.194Z,2.50
2022-07-27T15:57:11.465Z,2.83
2022-07-27T15:59:39.258Z,2.55
2022-07-27T16:02:07.096Z,2.58
2022-07-27T16:04:35.287Z,2.83
2022-07-27T16:07:03.065Z,2.45
2022-07-27T16:09:31.032Z,2.90
2022-07-27T16:11:58.920Z,2.63
2022-07-27T16:14:28.049Z,2.78
2022-07-27T16:16:55.864Z,2.42
2022-07-27T16:19:23.634Z,2.88
2022-07-27T16:21:54.968Z,3.20
2022-07-27T16:24:24.704Z,2.63
2022-07-27T16:26:52.917Z,2.75
2022-07-27T16:29:20.723Z,2.53
2022-07-27T16:31:51.226Z,2.50
2022-07-27T16:34:19.235Z,2.60
2022-07-27T16:36:48.998Z,2.77
2022-07-27T16:39:17.009Z,2.70
2022-07-27T16:41:47.155Z,2.50
2022-07-27T16:44:15.213Z,2.40
2022-07-27T16:46:43.505Z,2.50
2022-07-27T16:49:13.786Z,2.60
2022-07-27T16:51:42.283Z,2.47
2022-07-27T16:54:10.160Z,2.77
2022-07-27T16:56:38.722Z,2.80
2022-07-27T16:59:06.519Z,2.50
2022-07-27T17:01:34.706Z,2.87
2022-07-27T17:04:02.637Z,2.63
2022-07-27T17:06:31.927Z,2.97
2022-07-27T17:08:59.750Z,2.83
2022-07-27T17:11:27.564Z,2.93
2022-07-27T17:13:58.993Z,2.70
2022-07-27T17:16:27.373Z,2.60
2022-07-27T17:18:55.403Z,2.57
2022-07-27T17:21:23.211Z,2.80
2022-07-27T17:23:52.513Z,2.50
2022-07-27T17:26:20.361Z,2.40
2022-07-27T17:28:52.210Z,2.57
2022-07-27T17:31:21.125Z,2.60
2022-07-27T17:33:49.394Z,2.73
2022-07-27T17:36:17.547Z,2.50
2022-07-27T17:38:46.536Z,2.70
2022-07-27T17:41:21.907Z,2.40
2022-07-27T17:43:52.684Z,2.40
2022-07-27T17:46:20.765Z,2.63
2022-07-27T17:48:48.807Z,2.67
2022-07-27T17:51:17.126Z,2.60
2022-07-27T17:53:44.968Z,2.65
2022-07-27T17:56:13.265Z,2.30
2022-07-27T17:58:46.717Z,2.35
2022-07-27T18:01:14.599Z,2.50
2022-07-27T18:03:42.708Z,2.75
2022-07-27T18:06:10.520Z,2.70
2022-07-27T18:08:38.775Z,2.30
2022-07-27T18:11:07.130Z,2.43
2022-07-27T18:13:37.833Z,2.58
2022-07-27T18:16:11.603Z,2.20
2022-07-27T18:18:40.218Z,2.10
2022-07-27T18:21:08.641Z,2.17
2022-07-27T18:23:36.820Z,2.30
2022-07-27T18:26:05.164Z,2.17
2022-07-27T18:28:39.189Z,2.20
2022-07-27T18:31:12.184Z,2.37
2022-07-27T18:33:45.634Z,2.33
2022-07-27T18:36:13.870Z,2.40
2022-07-27T18:38:41.853Z,2.07
2022-07-27T18:41:09.941Z,2.53
2022-07-27T18:43:38.097Z,1.93
2022-07-27T18:46:06.492Z,2.20
2022-07-27T18:48:35.671Z,2.00
2022-07-27T18:51:03.552Z,2.30
2022-07-27T18:53:31.344Z,2.57
2022-07-27T18:55:59.202Z,2.37
2022-07-27T18:58:27.610Z,2.40
2022-07-27T19:00:55.585Z,2.57
2022-07-27T19:03:24.761Z,2.10
2022-07-27T19:05:57.370Z,2.30
2022-07-27T19:08:25.658Z,2.37
2022-07-27T19:10:53.858Z,2.30
2022-07-27T19:13:22.065Z,2.50
2022-07-27T19:15:51.255Z,1.90
2022-07-27T19:18:23.979Z,2.00
2022-07-27T19:20:51.954Z,2.20
2022-07-27T19:23:21.153Z,1.70
2022-07-27T19:25:52.654Z,2.50
2022-07-27T19:28:22.090Z,2.00
2022-07-27T19:30:50.017Z,1.97
2022-07-27T19:33:18.768Z,2.27
2022-07-27T19:35:46.635Z,2.00
2022-07-27T19:38:14.482Z,2.00
2022-07-27T19:40:45.607Z,1.90
2022-07-27T19:43:15.284Z,1.97
2022-07-27T19:45:43.506Z,2.00
2022-07-27T19:48:11.875Z,1.97
2022-07-27T19:50:39.991Z,2.03
2022-07-27T19:53:07.948Z,2.30
2022-07-27T19:55:35.913Z,2.40
2022-07-27T19:58:05.129Z,2.37
2022-07-27T20:00:33.044Z,2.10
2022-07-27T20:03:00.918Z,2.10
2022-07-27T20:05:28.919Z,2.10
2022-07-27T20:07:56.724Z,2.10
2022-07-27T20:10:25.386Z,2.20
2022-07-27T20:12:53.277Z,2.10
2022-07-27T20:15:22.763Z,2.20
2022-07-27T20:17:50.876Z,2.17
2022-07-27T20:20:18.991Z,2.27
2022-07-27T20:22:46.874Z,2.10
2022-07-27T20:25:15.481Z,2.00
2022-07-27T20:27:43.908Z,2.47
2022-07-27T20:30:14.507Z,2.40
2022-07-27T20:32:43.882Z,2.20
2022-07-27T20:35:11.679Z,2.63
2022-07-27T20:37:39.515Z,2.20
2022-07-27T20:40:11.222Z,2.13
2022-07-27T20:42:40.367Z,1.87
2022-07-27T20:45:14.797Z,2.50
2022-07-27T20:47:44.358Z,2.60
2022-07-27T20:50:13.580Z,2.33
2022-07-27T20:52:42.219Z,2.70
2022-07-27T20:55:11.481Z,2.50
2022-07-27T20:57:39.419Z,2.90
2022-07-27T21:00:08.711Z,2.50
2022-07-27T21:02:36.761Z,2.87
2022-07-27T21:05:07.232Z,2.43
2022-07-27T21:07:35.246Z,2.90
2022-07-27T21:10:03.110Z,2.63
2022-07-27T21:12:30.919Z,2.70
2022-07-27T21:14:58.777Z,2.17
2022-07-27T21:17:27.052Z,2.37
2022-07-27T21:19:54.829Z,2.30
2022-07-27T21:22:23.997Z,2.30
2022-07-27T21:24:51.317Z,2.10
2022-07-27T21:27:21.052Z,2.00
2022-07-27T21:29:49.490Z,2.17
2022-07-27T21:32:17.504Z,1.97
2022-07-27T21:34:45.504Z,2.23
2022-07-27T21:37:13.416Z,2.00
2022-07-27T21:39:42.772Z,2.40
2022-07-27T21:42:19.986Z,1.90
2022-07-27T21:44:47.863Z,2.20
2022-07-27T21:47:15.685Z,2.40
2022-07-27T21:49:44.311Z,2.37
2022-07-27T21:52:12.273Z,2.33
2022-07-27T21:54:40.411Z,2.07
2022-07-27T21:57:09.536Z,2.30
2022-07-27T21:59:37.399Z,2.00
2022-07-27T22:02:05.411Z,2.17
2022-07-27T22:04:33.576Z,2.20
2022-07-27T22:07:01.623Z,2.40
2022-07-27T22:09:30.147Z,2.17
2022-07-27T22:11:57.991Z,2.10
2022-07-27T22:14:27.385Z,2.10
2022-07-27T22:16:55.317Z,2.20
2022-07-27T22:19:23.532Z,2.40
2022-07-27T22:21:51.358Z,2.27
2022-07-27T22:24:19.143Z,2.00
2022-07-27T22:26:46.974Z,2.20
2022-07-27T22:29:14.765Z,2.03
2022-07-27T22:31:43.931Z,2.23
2022-07-27T22:34:12.064Z,2.30
2022-07-27T22:36:40.133Z,2.20
2022-07-27T22:39:07.905Z,2.30
2022-07-27T22:41:35.717Z,2.53
2022-07-27T22:44:03.515Z,2.00
2022-07-27T22:46:31.339Z,2.17
2022-07-27T22:49:00.574Z,2.23
2022-07-27T22:51:50.150Z,2.23
2022-07-27T22:54:16.765Z,2.50
2022-07-27T22:56:45.238Z,2.20
2022-07-27T22:59:13.025Z,2.30
2022-07-27T23:01:46.267Z,2.27
2022-07-27T23:04:18.082Z,2.70
2022-07-27T23:06:46.467Z,2.07
2022-07-27T23:09:14.405Z,1.93
2022-07-27T23:11:42.311Z,2.63
2022-07-27T23:14:10.348Z,2.50
2022-07-27T23:16:38.816Z,2.20
2022-07-27T23:19:06.648Z,2.23
2022-07-27T23:21:37.443Z,2.20
2022-07-27T23:24:05.719Z,2.10
2022-07-27T23:26:33.622Z,2.57
2022-07-27T23:29:01.751Z,2.40
2022-07-27T23:31:29.628Z,2.50
2022-07-27T23:33:57.475Z,2.40
2022-07-27T23:36:25.296Z,2.00
2022-07-27T23:38:54.616Z,2.20
2022-07-27T23:41:22.454Z,2.17
2022-07-27T23:43:50.253Z,2.33
2022-07-27T23:46:18.106Z,2.60
2022-07-27T23:48:46.090Z,2.40
2022-07-27T23:51:17.691Z,2.20
2022-07-27T23:53:45.553Z,2.57
2022-07-27T23:56:14.727Z,2.20
2022-07-27T23:58:43.408Z,2.10
